Terminal Aerodrome Forecast
Issued by NWS

Home | Current Version | Previous Version | Text Only | Print | Product List | Glossary On
Versions: 1 2 3 4 5 6 7 8 9 10 11 12 13 14 15 16 17 18 19 20 21 22 23 24 25 26 27 28 29 30 31 32 33 34 35 36 37
000
FTUS41 KBOX 291326 AAA
TAFACK
TAF AMD
KACK 291326Z 2913/3012 14004KT 3SM -RA BR OVC003
     FM291400 12005KT 2SM RA BR VCTS OVC003CB
     FM291700 06009KT 3SM -RA VCTS OVC003CB
     FM292200 04010KT 5SM -RA BKN004
     FM300000 03008KT 6SM BR VCSH BKN008
     FM300100 03010KT P6SM BKN015
     FM300300 01009KT P6SM BKN040=

USA.gov is the U.S. government's official web portal to all federal, state and local government web resources and services.